Time;durP1;ratioP1;P1;durP2;ratioP2;P2;SDS_P1;SDS_P2;PMS_P1;PMS_P2;Temp;Humidity;BMP_temperature;BMP_pressure;BME280_temperature;BME280_humidity;BME280_pressure;Samples;Min_cycle;Max_cycle;Signal;HPM_P1;HPM_P2
2021/12/23 00:00:34;;;;;;;18.83;5.27;;;-3.30;99.90;;;;;;5018744;28;20937;-75
2021/12/23 00:03:00;;;;;;;18.27;5.13;;;-2.20;99.90;;;;;;5017184;28;20659;-75
2021/12/23 00:05:26;;;;;;;13.87;4.00;;;-3.30;99.90;;;;;;5019054;28;20238;-75
2021/12/23 00:07:51;;;;;;;19.83;5.67;;;-3.40;99.90;;;;;;5017237;28;20191;-76
2021/12/23 00:10:17;;;;;;;15.27;4.50;;;-3.70;99.90;;;;;;5016149;28;20246;-75
2021/12/23 00:12:45;;;;;;;15.93;4.57;;;-3.30;99.90;;;;;;5016528;28;20477;-75
2021/12/23 00:16:01;;;;;;;17.77;4.90;;;-3.20;99.90;;;;;;5015234;28;20640;-76
2021/12/23 00:25:45;;;;;;;18.27;5.10;;;-3.30;99.90;;;;;;5014181;28;20199;-75
2021/12/23 00:28:10;;;;;;;16.73;4.80;;;-3.30;99.90;;;;;;5014614;28;20192;-75
2021/12/23 00:30:36;;;;;;;18.57;5.13;;;-3.20;99.90;;;;;;5015750;28;20839;-75
2021/12/23 00:33:01;;;;;;;18.20;5.23;;;-3.30;99.90;;;;;;5014731;28;20189;-75
2021/12/23 00:35:27;;;;;;;15.90;4.63;;;-3.30;99.90;;;;;;5013384;28;20231;-75
2021/12/23 00:37:59;;;;;;;15.00;4.40;;;-3.60;99.90;;;;;;5011571;28;20658;-75
2021/12/23 00:40:25;;;;;;;19.67;5.63;;;-3.40;99.90;;;;;;5017783;28;20208;-75
2021/12/23 00:42:51;;;;;;;15.60;4.47;;;-3.60;99.90;;;;;;5021622;28;20188;-75
2021/12/23 00:45:16;;;;;;;12.33;3.70;;;-3.50;99.90;;;;;;5016567;28;20547;-75
2021/12/23 00:47:42;;;;;;;10.30;3.13;;;-3.50;99.90;;;;;;5025306;28;20616;-76
2021/12/23 00:50:08;;;;;;;19.57;5.50;;;-3.50;99.90;;;;;;5024606;28;20220;-76
2021/12/23 00:52:36;;;;;;;21.07;5.90;;;-3.30;99.90;;;;;;5019553;28;20259;-76
2021/12/23 00:55:04;;;;;;;12.77;3.77;;;-3.40;99.90;;;;;;5021367;28;20182;-76
2021/12/23 00:57:31;;;;;;;13.17;3.87;;;-3.30;99.90;;;;;;5020131;28;20215;-76
2021/12/23 00:59:58;;;;;;;14.37;4.13;;;-3.10;99.90;;;;;;5020853;28;20206;-75
2021/12/23 01:02:29;;;;;;;11.10;3.40;;;-3.50;99.90;;;;;;5004731;28;20673;-75
2021/12/23 01:04:55;;;;;;;14.87;4.30;;;-3.40;99.90;;;;;;5024417;28;20231;-75
2021/12/23 01:07:21;;;;;;;12.93;3.80;;;-3.60;99.90;;;;;;5026684;28;20196;-75
2021/12/23 01:09:47;;;;;;;12.03;3.57;;;-3.70;99.90;;;;;;5022738;28;20875;-76
2021/12/23 01:12:15;;;;;;;13.73;4.13;;;-3.50;99.90;;;;;;5024618;28;20188;-75
2021/12/23 01:14:54;;;;;;;14.63;4.37;;;-3.00;99.90;;;;;;5016930;28;20180;-75
2021/12/23 01:17:31;;;;;;;13.23;3.90;;;-3.60;99.90;;;;;;5025156;28;20588;-75
2021/12/23 01:20:00;;;;;;;11.47;3.43;;;-3.50;99.90;;;;;;5027007;28;20214;-75
2021/12/23 01:22:26;;;;;;;8.90;2.90;;;-3.60;99.90;;;;;;5024850;28;20180;-74
2021/12/23 01:24:52;;;;;;;14.53;4.37;;;-2.40;99.90;;;;;;5024036;28;20239;-75
2021/12/23 01:27:17;;;;;;;15.03;4.47;;;-3.20;99.90;;;;;;5024105;28;20184;-75
2021/12/23 01:29:43;;;;;;;11.60;3.60;;;-3.60;99.90;;;;;;5022440;28;20218;-75
2021/12/23 01:32:09;;;;;;;15.40;4.57;;;-3.60;99.90;;;;;;5028619;28;20207;-75
2021/12/23 01:34:36;;;;;;;11.90;3.67;;;-3.60;99.90;;;;;;5027087;28;20184;-75
2021/12/23 01:37:03;;;;;;;12.97;3.93;;;-3.60;99.90;;;;;;5023288;28;20268;-75
2021/12/23 01:39:30;;;;;;;11.67;3.63;;;-3.40;99.90;;;;;;5021903;28;20194;-73
2021/12/23 01:41:56;;;;;;;16.80;5.13;;;-3.60;99.90;;;;;;5022924;28;20192;-73
2021/12/23 01:44:22;;;;;;;17.10;5.07;;;-3.80;99.90;;;;;;5021308;28;20203;-72
2021/12/23 01:46:47;;;;;;;14.87;4.57;;;-3.80;99.90;;;;;;5017292;28;20193;-72
2021/12/23 01:49:13;;;;;;;13.43;4.10;;;-3.70;99.90;;;;;;5023198;28;20845;-75
2021/12/23 01:51:39;;;;;;;19.43;5.67;;;-3.70;99.90;;;;;;5003378;28;20529;-75
2021/12/23 01:54:04;;;;;;;14.00;4.30;;;-2.90;99.90;;;;;;5014608;28;20189;-75
2021/12/23 01:56:30;;;;;;;12.17;3.77;;;-3.70;99.90;;;;;;5024935;28;20193;-75
2021/12/23 01:58:56;;;;;;;12.80;3.90;;;-3.80;99.90;;;;;;5018838;28;20193;-75
2021/12/23 02:01:21;;;;;;;13.00;4.13;;;-3.70;99.90;;;;;;5022788;28;20231;-75
2021/12/23 02:03:47;;;;;;;8.73;2.93;;;-3.70;99.90;;;;;;5004938;28;20643;-74
2021/12/23 02:06:13;;;;;;;11.27;3.67;;;-3.80;99.90;;;;;;5023571;28;20223;-75
2021/12/23 02:08:39;;;;;;;10.23;3.33;;;-3.70;99.90;;;;;;5020645;28;20188;-75
2021/12/23 02:11:07;;;;;;;18.30;5.57;;;-3.80;99.90;;;;;;5020860;28;20631;-75
2021/12/23 02:13:34;;;;;;;23.33;6.97;;;-3.30;99.90;;;;;;5018988;28;20188;-75
2021/12/23 02:16:00;;;;;;;11.63;3.73;;;-4.00;99.90;;;;;;5020606;28;20215;-74
2021/12/23 02:18:26;;;;;;;11.43;3.70;;;-3.80;99.90;;;;;;5024667;28;20531;-75
2021/12/23 02:20:53;;;;;;;11.57;3.70;;;-3.70;99.90;;;;;;5024428;28;20207;-75
2021/12/23 02:23:19;;;;;;;15.57;4.87;;;-3.70;99.90;;;;;;5018622;28;20184;-75
2021/12/23 02:25:44;;;;;;;15.23;4.77;;;-3.70;99.90;;;;;;5016531;28;20526;-75
2021/12/23 02:28:14;;;;;;;12.50;3.97;;;-3.70;99.90;;;;;;5028905;28;20192;-75
2021/12/23 02:30:40;;;;;;;11.37;3.63;;;-3.80;99.90;;;;;;5024265;28;20215;-75
2021/12/23 02:33:07;;;;;;;12.37;3.87;;;-3.70;99.90;;;;;;5026442;28;20229;-75
2021/12/23 02:35:33;;;;;;;15.50;4.87;;;-3.70;99.90;;;;;;5023542;28;20184;-75
2021/12/23 02:37:58;;;;;;;14.27;4.57;;;-3.70;99.90;;;;;;5025637;28;20180;-75
2021/12/23 02:40:29;;;;;;;14.23;4.60;;;-3.70;99.90;;;;;;5020857;28;20215;-75
2021/12/23 02:42:57;;;;;;;12.17;3.93;;;-3.70;99.90;;;;;;5024619;28;20192;-75
2021/12/23 02:45:22;;;;;;;12.23;3.93;;;-3.70;99.90;;;;;;5016673;28;20207;-75
2021/12/23 02:47:48;;;;;;;16.17;5.07;;;-3.80;99.90;;;;;;5022559;28;20191;-75
2021/12/23 02:50:13;;;;;;;14.57;4.60;;;-3.70;99.90;;;;;;5023045;28;20220;-75
2021/12/23 02:52:39;;;;;;;11.83;3.90;;;-3.80;99.90;;;;;;5025853;28;20237;-75
2021/12/23 02:55:05;;;;;;;17.40;5.43;;;-3.70;99.90;;;;;;5014453;28;20233;-74
2021/12/23 02:57:32;;;;;;;10.50;3.40;;;-3.60;99.90;;;;;;5020907;28;20198;-75
2021/12/23 02:59:58;;;;;;;14.10;4.43;;;-3.70;99.90;;;;;;5018444;28;20203;-74
2021/12/23 03:02:24;;;;;;;18.07;5.80;;;-3.40;99.90;;;;;;5022584;28;20567;-74
2021/12/23 03:04:49;;;;;;;11.37;3.70;;;-3.80;99.90;;;;;;5019677;28;20314;-75
2021/12/23 03:07:15;;;;;;;11.50;3.73;;;-3.80;99.90;;;;;;5022124;28;20223;-75
2021/12/23 03:09:45;;;;;;;16.90;5.33;;;-3.80;99.90;;;;;;5025628;28;20647;-74
2021/12/23 03:12:11;;;;;;;14.13;4.50;;;-3.10;99.90;;;;;;5019781;28;20685;-74
2021/12/23 03:14:37;;;;;;;13.17;4.23;;;-3.50;99.90;;;;;;5019434;28;20185;-75
2021/12/23 03:17:03;;;;;;;14.40;4.67;;;-4.80;99.90;;;;;;5021676;28;20261;-74
2021/12/23 03:19:28;;;;;;;11.37;3.63;;;-3.80;99.90;;;;;;5022185;28;20315;-75
2021/12/23 03:21:54;;;;;;;15.63;5.07;;;-3.70;99.90;;;;;;5019992;28;20250;-74
2021/12/23 03:24:19;;;;;;;9.30;3.17;;;-3.70;99.90;;;;;;5022831;28;20303;-75
2021/12/23 03:26:45;;;;;;;15.63;5.07;;;-3.90;99.90;;;;;;5006716;28;20669;-74
2021/12/23 03:29:11;;;;;;;18.13;5.87;;;-3.70;99.90;;;;;;5021935;28;20195;-75
2021/12/23 03:31:38;;;;;;;10.70;3.57;;;-3.80;99.90;;;;;;5024260;28;20212;-75
2021/12/23 03:34:04;;;;;;;11.47;3.80;;;-3.80;99.90;;;;;;5020492;28;20172;-75
2021/12/23 03:36:30;;;;;;;14.17;4.63;;;-3.80;99.90;;;;;;5021941;28;20172;-75
2021/12/23 03:38:55;;;;;;;12.17;4.07;;;-2.90;99.90;;;;;;5026367;28;20183;-75
2021/12/23 03:41:21;;;;;;;12.80;4.33;;;-3.80;99.90;;;;;;5024795;28;20234;-75
2021/12/23 03:43:46;;;;;;;14.13;4.67;;;-3.80;99.90;;;;;;5020746;28;20193;-75
2021/12/23 03:46:12;;;;;;;10.77;3.67;;;-3.70;99.90;;;;;;5022149;28;20191;-75
2021/12/23 03:48:37;;;;;;;9.63;3.30;;;-3.80;99.90;;;;;;5022283;28;20263;-74
2021/12/23 03:51:03;;;;;;;10.50;3.53;;;-3.60;99.90;;;;;;5024314;28;20220;-75
2021/12/23 03:53:29;;;;;;;17.70;5.70;;;-3.70;99.90;;;;;;5023449;28;20192;-75
2021/12/23 03:55:54;;;;;;;9.67;3.27;;;-3.70;99.90;;;;;;5023952;28;20180;-75
2021/12/23 03:58:21;;;;;;;14.73;4.83;;;-3.60;99.90;;;;;;5021195;28;20189;-75
2021/12/23 04:00:46;;;;;;;16.77;5.47;;;-3.70;99.90;;;;;;5018858;28;20243;-74
2021/12/23 04:03:12;;;;;;;16.60;5.37;;;-3.70;99.90;;;;;;5019555;28;20214;-75
2021/12/23 04:05:38;;;;;;;14.20;4.60;;;-3.60;99.90;;;;;;5019887;28;20254;-75
2021/12/23 04:08:04;;;;;;;11.10;3.77;;;-3.50;99.90;;;;;;5021766;28;21103;-75
2021/12/23 04:10:30;;;;;;;8.67;3.03;;;-3.50;99.90;;;;;;5022846;28;20224;-75
2021/12/23 04:12:56;;;;;;;10.27;3.53;;;-3.60;99.90;;;;;;5023250;28;20188;-74
2021/12/23 04:15:21;;;;;;;7.67;2.73;;;-3.90;99.90;;;;;;5026401;28;20176;-75
2021/12/23 04:17:47;;;;;;;14.73;4.70;;;-3.60;99.90;;;;;;5021588;28;20239;-75
2021/12/23 04:20:22;;;;;;;10.47;3.60;;;-3.60;99.90;;;;;;5026196;28;20212;-74
2021/12/23 04:22:50;;;;;;;11.30;3.63;;;-3.50;99.90;;;;;;5021099;28;20187;-75
2021/12/23 04:25:17;;;;;;;10.90;3.67;;;-3.70;99.90;;;;;;5023080;28;20212;-73
2021/12/23 04:27:46;;;;;;;8.57;3.00;;;-3.60;99.90;;;;;;5025790;28;20184;-75
2021/12/23 04:30:12;;;;;;;9.87;3.37;;;-3.60;99.90;;;;;;5023860;28;20222;-74
2021/12/23 04:32:38;;;;;;;10.17;3.57;;;-3.70;99.90;;;;;;5026818;28;20176;-74
2021/12/23 04:35:05;;;;;;;11.97;4.00;;;-3.60;99.90;;;;;;5022956;28;20212;-75
2021/12/23 04:37:30;;;;;;;12.67;4.17;;;-3.60;99.90;;;;;;5008390;28;20242;-74
2021/12/23 04:39:56;;;;;;;11.47;3.87;;;-3.60;99.90;;;;;;5023641;28;20212;-75
2021/12/23 04:42:22;;;;;;;8.90;3.10;;;-2.30;99.90;;;;;;5030368;28;20200;-74
2021/12/23 04:44:48;;;;;;;11.10;3.83;;;-3.80;99.90;;;;;;5026264;28;20532;-74
2021/12/23 04:47:14;;;;;;;12.93;4.20;;;-3.70;99.90;;;;;;5029094;28;20180;-74
2021/12/23 04:49:40;;;;;;;13.53;4.17;;;;;;;;;;5028099;28;20281;-74
2021/12/23 04:52:06;;;;;;;10.07;3.53;;;-3.50;99.90;;;;;;5027269;28;20462;-74
2021/12/23 04:54:31;;;;;;;14.17;4.60;;;-3.50;99.90;;;;;;5024374;28;20184;-75
2021/12/23 04:56:57;;;;;;;12.73;4.23;;;-3.20;99.90;;;;;;5026156;28;20227;-73
2021/12/23 04:59:22;;;;;;;7.73;2.70;;;-3.60;99.90;;;;;;5027943;28;20216;-74
2021/12/23 05:01:49;;;;;;;9.53;3.30;;;-3.70;99.90;;;;;;5025539;28;20697;-73
2021/12/23 05:04:15;;;;;;;11.73;4.00;;;-3.70;99.90;;;;;;5022634;28;20177;-75
2021/12/23 05:06:41;;;;;;;19.00;6.13;;;-3.70;99.90;;;;;;5021486;28;20180;-74
2021/12/23 05:09:07;;;;;;;19.70;6.37;;;-3.50;99.90;;;;;;5021062;28;20255;-74
2021/12/23 05:11:33;;;;;;;11.60;3.80;;;-3.70;99.90;;;;;;5008408;28;20215;-74
2021/12/23 05:13:58;;;;;;;18.37;5.93;;;-3.80;99.90;;;;;;5007218;28;20193;-75
2021/12/23 05:16:24;;;;;;;12.07;4.00;;;-3.50;99.90;;;;;;5025488;28;20263;-74
2021/12/23 05:18:49;;;;;;;10.40;3.60;;;-3.40;99.90;;;;;;5023862;28;20193;-75
2021/12/23 05:21:15;;;;;;;9.83;3.53;;;-3.70;99.90;;;;;;5025525;28;20242;-74
2021/12/23 05:23:41;;;;;;;13.70;4.57;;;-3.90;99.90;;;;;;5019123;28;20276;-74
2021/12/23 05:26:08;;;;;;;9.00;3.17;;;-3.60;99.90;;;;;;5022793;28;20196;-75
2021/12/23 05:28:34;;;;;;;18.50;6.03;;;-3.70;99.90;;;;;;5024722;28;20267;-75
2021/12/23 05:31:00;;;;;;;15.00;4.93;;;-3.60;99.90;;;;;;5020241;28;20215;-74
2021/12/23 05:33:25;;;;;;;16.93;5.43;;;-3.30;99.90;;;;;;5023962;28;20180;-75
2021/12/23 05:35:51;;;;;;;9.97;3.53;;;-3.70;99.90;;;;;;5026729;28;20189;-75
2021/12/23 05:38:16;;;;;;;14.43;4.83;;;-3.70;99.90;;;;;;5024432;28;20180;-75
2021/12/23 05:40:42;;;;;;;8.77;3.10;;;-3.80;99.90;;;;;;5005040;28;20624;-75
2021/12/23 05:43:07;;;;;;;8.90;3.13;;;-3.70;99.90;;;;;;5022741;28;20185;-74
2021/12/23 05:45:33;;;;;;;10.40;3.63;;;-4.60;99.90;;;;;;5022612;28;20563;-75
2021/12/23 05:47:59;;;;;;;11.07;3.77;;;-3.20;99.90;;;;;;5028017;28;20184;-75
2021/12/23 05:50:25;;;;;;;8.47;3.00;;;-3.50;99.90;;;;;;5028403;28;20405;-75
2021/12/23 05:52:51;;;;;;;12.30;4.23;;;-3.60;99.90;;;;;;5022559;28;20184;-75
2021/12/23 05:55:17;;;;;;;8.70;3.17;;;-3.50;99.90;;;;;;5023445;28;20750;-75
2021/12/23 05:57:43;;;;;;;9.23;3.23;;;-3.60;99.90;;;;;;5022998;28;20212;-74
2021/12/23 06:00:13;;;;;;;13.77;4.57;;;-3.60;99.90;;;;;;5020486;28;20235;-75
2021/12/23 06:02:39;;;;;;;10.13;3.50;;;-3.50;99.90;;;;;;5025886;28;20186;-75
2021/12/23 06:05:06;;;;;;;13.03;4.30;;;-3.40;99.90;;;;;;5024285;28;20184;-75
2021/12/23 06:07:32;;;;;;;12.17;4.07;;;-3.50;99.90;;;;;;5025206;28;20482;-75
2021/12/23 06:09:57;;;;;;;9.43;3.17;;;-3.40;99.90;;;;;;5024137;28;20346;-75
2021/12/23 06:12:23;;;;;;;14.13;4.77;;;-3.60;99.90;;;;;;5022792;28;20587;-75
2021/12/23 06:14:48;;;;;;;16.00;5.37;;;-3.60;99.90;;;;;;5016660;28;20223;-75
2021/12/23 06:17:14;;;;;;;12.23;4.20;;;-3.50;99.90;;;;;;5017965;28;20538;-75
2021/12/23 06:19:39;;;;;;;10.93;3.70;;;-3.30;99.90;;;;;;5023533;28;20192;-75
2021/12/23 06:22:05;;;;;;;13.17;4.40;;;-3.50;99.90;;;;;;5022105;28;20707;-75
2021/12/23 06:24:31;;;;;;;13.13;4.50;;;-3.40;99.90;;;;;;5020585;28;20224;-75
2021/12/23 06:26:57;;;;;;;11.90;4.00;;;-3.40;99.90;;;;;;5022686;28;20211;-75
2021/12/23 06:29:23;;;;;;;9.53;3.47;;;-3.30;99.90;;;;;;5023919;28;20212;-75
2021/12/23 06:31:48;;;;;;;13.27;4.30;;;-3.40;99.90;;;;;;5026059;28;20224;-75
2021/12/23 06:34:14;;;;;;;11.60;3.90;;;-3.30;99.90;;;;;;5028475;28;20207;-75
2021/12/23 06:36:41;;;;;;;15.93;5.20;;;-3.20;99.90;;;;;;5006520;28;20173;-74
2021/12/23 06:39:07;;;;;;;11.67;3.97;;;-3.30;99.90;;;;;;5020292;28;20601;-74
2021/12/23 06:41:32;;;;;;;11.07;3.70;;;-3.30;99.90;;;;;;5021936;28;20231;-75
2021/12/23 06:43:58;;;;;;;17.47;5.67;;;-3.30;99.90;;;;;;5016096;28;20203;-73
2021/12/23 06:46:23;;;;;;;15.47;5.13;;;-3.20;99.90;;;;;;5003872;28;20283;-73
2021/12/23 06:48:49;;;;;;;15.90;5.23;;;-3.10;99.90;;;;;;5001294;28;20460;-74
2021/12/23 06:51:14;;;;;;;10.43;3.63;;;-3.20;99.90;;;;;;5024233;28;20274;-74
2021/12/23 06:53:40;;;;;;;14.57;4.97;;;-3.30;99.90;;;;;;5000866;28;20188;-73
2021/12/23 06:56:06;;;;;;;19.20;6.00;;;-3.30;99.90;;;;;;5017054;28;20188;-74
2021/12/23 06:58:32;;;;;;;16.80;5.37;;;-3.30;99.90;;;;;;5013311;28;20254;-74
2021/12/23 07:00:58;;;;;;;19.53;5.73;;;-3.20;99.90;;;;;;4993569;28;20207;-75
2021/12/23 07:03:31;;;;;;;24.43;7.43;;;-3.10;99.90;;;;;;5019665;28;20188;-75
2021/12/23 07:06:04;;;;;;;12.67;4.00;;;-3.10;99.90;;;;;;5020953;28;20173;-75
2021/12/23 07:08:31;;;;;;;13.70;4.43;;;-3.10;99.90;;;;;;5016943;28;20184;-73
2021/12/23 07:10:56;;;;;;;10.37;3.37;;;-1.40;99.90;;;;;;5018839;28;20212;-72
2021/12/23 07:13:22;;;;;;;14.73;5.03;;;-3.00;99.90;;;;;;5021142;28;20672;-72
2021/12/23 07:15:48;;;;;;;20.83;6.83;;;-2.90;99.90;;;;;;5015861;28;20412;-72
2021/12/23 07:18:13;;;;;;;19.10;5.97;;;-3.00;99.90;;;;;;5009650;28;20674;-72
2021/12/23 07:20:39;;;;;;;17.33;5.40;;;-3.00;99.90;;;;;;5016149;28;20805;-72
2021/12/23 07:23:05;;;;;;;15.17;5.10;;;-2.90;99.90;;;;;;5020062;28;20186;-72
2021/12/23 07:25:30;;;;;;;23.07;7.27;;;-3.00;99.90;;;;;;5015045;28;20199;-72
2021/12/23 07:27:56;;;;;;;21.30;6.87;;;-3.10;99.90;;;;;;5010303;28;20191;-72
2021/12/23 07:30:22;;;;;;;17.73;5.57;;;-3.00;99.90;;;;;;5012128;28;20207;-72
2021/12/23 07:32:50;;;;;;;12.63;4.03;;;-3.10;99.90;;;;;;5017899;28;20180;-72
2021/12/23 07:35:18;;;;;;;14.20;4.70;;;-3.10;99.90;;;;;;5018601;28;20184;-72
2021/12/23 07:37:44;;;;;;;19.73;6.30;;;-3.10;99.90;;;;;;5017605;28;20184;-73
2021/12/23 07:40:14;;;;;;;14.20;4.73;;;-3.00;99.90;;;;;;5010449;28;20678;-72
2021/12/23 07:42:44;;;;;;;13.17;4.40;;;-2.80;99.90;;;;;;5014775;28;20184;-72
2021/12/23 07:45:09;;;;;;;18.80;6.10;;;-3.00;99.90;;;;;;5012934;28;20231;-72
2021/12/23 07:47:36;;;;;;;21.17;6.80;;;-3.00;99.90;;;;;;5013079;28;20192;-72
2021/12/23 07:50:03;;;;;;;13.00;4.10;;;-3.00;99.90;;;;;;5013284;28;20212;-73
2021/12/23 07:52:29;;;;;;;20.60;6.30;;;-2.70;99.90;;;;;;5011037;28;20203;-73
2021/12/23 07:54:54;;;;;;;16.97;5.67;;;-2.90;99.90;;;;;;4990738;28;20652;-74
2021/12/23 07:57:19;;;;;;;16.47;5.53;;;-3.10;99.90;;;;;;5012495;28;20196;-74
2021/12/23 07:59:45;;;;;;;14.57;4.80;;;-2.80;99.90;;;;;;5011395;28;20254;-73
2021/12/23 08:02:10;;;;;;;23.73;6.97;;;-2.10;99.90;;;;;;5013270;28;20734;-74
2021/12/23 08:04:36;;;;;;;23.13;7.27;;;-2.80;99.90;;;;;;5005414;28;20193;-74
2021/12/23 08:07:03;;;;;;;12.70;4.27;;;-2.80;99.90;;;;;;5017889;28;20517;-73
2021/12/23 08:09:29;;;;;;;12.63;3.87;;;-2.80;99.90;;;;;;5012565;28;20667;-78
2021/12/23 08:11:54;;;;;;;12.50;5.37;;;-2.70;99.90;;;;;;5039424;23;20991;-52
2021/12/23 08:14:20;;;;;;;13.27;6.80;;;-2.70;99.90;;;;;;5022936;28;20198;-52
2021/12/23 08:16:47;;;;;;;11.50;5.83;;;-2.70;99.90;;;;;;5033542;28;20187;-52
2021/12/23 08:19:13;;;;;;;12.50;5.87;;;-2.40;99.90;;;;;;5031314;28;20233;-52
2021/12/23 08:21:39;;;;;;;17.43;7.40;;;;;;;;;;5028971;28;20186;-51
2021/12/23 08:24:05;;;;;;;19.77;9.17;;;-2.70;99.90;;;;;;5031094;28;20192;-51
2021/12/23 08:26:39;;;;;;;8.70;3.83;;;-2.60;99.90;;;;;;5024986;28;20216;-52
2021/12/23 08:29:06;;;;;;;14.80;7.13;;;-2.60;99.90;;;;;;5026720;28;20189;-51
2021/12/23 08:31:32;;;;;;;15.20;6.70;;;-2.40;99.90;;;;;;5025362;28;20219;-51
2021/12/23 08:33:57;;;;;;;16.57;7.40;;;-2.60;99.90;;;;;;5031772;28;20207;-52
2021/12/23 08:36:23;;;;;;;14.03;6.97;;;-2.30;99.90;;;;;;5026655;28;20596;-52
2021/12/23 08:38:48;;;;;;;15.97;8.10;;;-2.40;99.90;;;;;;5028550;28;20187;-51
2021/12/23 08:41:15;;;;;;;16.83;8.17;;;-2.40;99.90;;;;;;5017191;28;20286;-51
2021/12/23 08:43:41;;;;;;;23.37;9.60;;;-2.20;99.90;;;;;;5018679;28;20429;-51
2021/12/23 08:46:06;;;;;;;25.37;9.40;;;-2.40;99.90;;;;;;5026566;28;20264;-51
2021/12/23 08:48:32;;;;;;;23.00;9.00;;;-2.30;99.90;;;;;;5028199;28;20753;-52
2021/12/23 08:50:57;;;;;;;30.93;12.50;;;-2.30;99.90;;;;;;5030534;28;20223;-51
2021/12/23 08:53:23;;;;;;;22.43;8.60;;;-2.20;99.90;;;;;;5031936;28;20203;-52
2021/12/23 08:55:48;;;;;;;15.83;5.17;;;-2.30;99.90;;;;;;5030345;28;20272;-51
2021/12/23 08:58:14;;;;;;;17.57;6.13;;;-2.30;99.90;;;;;;5040932;28;20176;-52
2021/12/23 09:00:40;;;;;;;14.53;5.00;;;-2.20;99.90;;;;;;5034354;28;20196;-51
2021/12/23 09:03:07;;;;;;;18.87;7.23;;;-2.20;99.90;;;;;;5033251;28;20217;-51
2021/12/23 09:05:35;;;;;;;14.27;5.23;;;-2.20;99.90;;;;;;5034976;28;20229;-51
2021/12/23 09:08:01;;;;;;;13.57;5.03;;;-2.20;99.90;;;;;;5028881;28;20180;-51
2021/12/23 09:10:27;;;;;;;15.83;5.80;;;-2.20;99.90;;;;;;5034159;28;20203;-51
2021/12/23 09:12:52;;;;;;;11.77;4.27;;;-2.10;99.90;;;;;;5033456;28;20863;-51
2021/12/23 09:15:19;;;;;;;8.90;3.70;;;-2.20;99.90;;;;;;5031723;28;20179;-51
2021/12/23 09:17:46;;;;;;;24.20;6.50;;;-2.10;99.90;;;;;;5040754;23;20228;-69
2021/12/23 09:20:14;;;;;;;9.93;2.93;;;-1.90;99.90;;;;;;5009650;28;20254;-69
2021/12/23 09:22:40;;;;;;;13.90;3.83;;;-2.00;99.90;;;;;;5004343;28;20188;-72
2021/12/23 09:25:11;;;;;;;29.57;7.53;;;-2.10;99.90;;;;;;4997908;28;20189;-68
2021/12/23 09:27:55;;;;;;;18.10;4.97;;;-1.90;99.90;;;;;;4990079;28;20202;-69
2021/12/23 09:33:06;;;;;;;22.93;6.10;;;-1.90;99.90;;;;;;4981909;28;20207;-69
2021/12/23 09:35:32;;;;;;;8.90;2.83;;;-1.80;99.90;;;;;;4992977;28;20614;-69
2021/12/23 09:38:02;;;;;;;9.30;2.87;;;-1.50;99.90;;;;;;4989719;28;20225;-69
2021/12/23 09:40:29;;;;;;;12.37;3.57;;;-1.80;99.90;;;;;;4989673;28;20243;-68
2021/12/23 09:42:59;;;;;;;18.37;4.97;;;-1.80;99.90;;;;;;4984567;28;20190;-69
2021/12/23 09:45:24;;;;;;;12.40;3.67;;;-1.00;99.90;;;;;;4984752;28;20178;-69
2021/12/23 09:47:50;;;;;;;12.07;3.53;;;-1.70;99.90;;;;;;4989156;28;20259;-68
2021/12/23 09:50:20;;;;;;;18.50;5.10;;;-1.70;99.90;;;;;;4990164;28;20267;-69
2021/12/23 09:52:50;;;;;;;11.13;3.27;;;-1.80;99.90;;;;;;4986458;28;20195;-69
2021/12/23 09:55:21;;;;;;;16.77;4.50;;;-1.70;99.90;;;;;;4986431;28;20608;-69
2021/12/23 09:57:48;;;;;;;7.27;2.23;;;-1.70;99.90;;;;;;4990840;28;20726;-69
2021/12/23 10:00:19;;;;;;;20.17;5.23;;;-1.60;99.90;;;;;;4989981;28;20177;-68
2021/12/23 10:02:45;;;;;;;10.23;3.07;;;-1.50;99.90;;;;;;4985598;28;20182;-69
2021/12/23 10:05:20;;;;;;;13.93;3.90;;;-1.50;99.90;;;;;;4984652;28;20189;-69
2021/12/23 10:07:48;;;;;;;12.13;3.50;;;-1.50;99.90;;;;;;4986499;28;20212;-69
2021/12/23 10:10:24;;;;;;;12.80;3.43;;;-1.30;99.90;;;;;;4991294;28;20209;-69
2021/12/23 10:32:54;;;;;;;18.47;5.00;;;-1.30;99.90;;;;;;4984376;28;20239;-69
2021/12/23 10:38:13;;;;;;;17.43;4.80;;;-1.10;99.90;;;;;;4988785;28;20825;-69
2021/12/23 10:40:42;;;;;;;10.20;3.03;;;-1.10;99.90;;;;;;4984264;28;20186;-69
2021/12/23 10:43:11;;;;;;;10.10;3.07;;;-1.20;99.90;;;;;;4981752;28;20674;-69
2021/12/23 10:45:55;;;;;;;16.93;4.67;;;-1.00;99.90;;;;;;4977641;28;20229;-69
2021/12/23 10:48:24;;;;;;;31.53;8.20;;;-1.20;99.90;;;;;;4981748;28;20287;-69
2021/12/23 10:50:56;;;;;;;26.30;7.30;;;-1.00;99.90;;;;;;4979345;28;20202;-69
2021/12/23 10:54:08;;;;;;;18.43;5.20;;;-1.00;99.90;;;;;;4985986;28;20523;-69
2021/12/23 10:59:23;;;;;;;23.37;6.43;;;-1.00;99.90;;;;;;4981239;28;20292;-69
2021/12/23 11:02:17;;;;;;;10.73;3.30;;;-1.00;99.90;;;;;;4996400;28;20203;-69
2021/12/23 11:05:13;;;;;;;13.37;3.80;;;-0.90;99.90;;;;;;4975790;28;20208;-69
2021/12/23 11:27:28;;;;;;;17.17;4.83;;;-0.60;99.90;;;;;;4984112;28;20621;-70
2021/12/23 11:29:45;;;;;;;20.50;5.77;;;-0.70;99.90;;;;;;4979749;28;20345;-70
2021/12/23 11:37:04;;;;;;;12.60;3.80;;;-0.20;96.30;;;;;;4984369;28;20280;-72
2021/12/23 11:41:52;;;;;;;18.30;5.10;;;-0.10;68.10;;;;;;4986322;28;20181;-70
2021/12/23 11:44:18;;;;;;;16.30;4.60;;;-0.10;72.60;;;;;;4975890;28;20205;-71
2021/12/23 11:46:52;;;;;;;20.03;5.50;;;-0.10;67.00;;;;;;4999438;28;20213;-71
2021/12/23 11:49:19;;;;;;;21.50;6.07;;;0.00;56.70;;;;;;4978222;28;20522;-68
2021/12/23 11:54:36;;;;;;;26.20;7.10;;;0.10;48.80;;;;;;4980276;28;20732;-67
2021/12/23 11:57:16;;;;;;;14.27;4.07;;;0.10;46.70;;;;;;4982628;28;20344;-68
2021/12/23 11:59:45;;;;;;;24.37;6.63;;;0.10;46.50;;;;;;4975568;28;20200;-65
2021/12/23 12:02:20;;;;;;;12.17;3.47;;;0.60;99.90;;;;;;4984758;28;20182;-65
2021/12/23 12:04:47;;;;;;;10.77;3.27;;;0.50;99.90;;;;;;4978762;28;20402;-65
2021/12/23 12:07:19;;;;;;;9.80;3.00;;;0.50;99.90;;;;;;4985035;28;20206;-64
2021/12/23 12:10:03;;;;;;;13.70;3.97;;;0.60;84.40;;;;;;4988659;28;20209;-65
2021/12/23 12:12:31;;;;;;;26.37;6.90;;;0.60;76.90;;;;;;4987908;28;20457;-65
2021/12/23 12:14:57;;;;;;;17.40;4.93;;;0.70;78.40;;;;;;4977485;28;20784;-65
2021/12/23 12:17:25;;;;;;;22.73;6.27;;;0.60;51.30;;;;;;4988223;28;20864;-65
2021/12/23 12:19:59;;;;;;;8.33;2.57;;;0.60;64.80;;;;;;4981933;28;20186;-65
2021/12/23 12:22:52;;;;;;;12.60;3.70;;;0.70;60.40;;;;;;4987641;28;20558;-65
2021/12/23 12:25:26;;;;;;;10.43;3.10;;;0.70;45.50;;;;;;4987559;28;20182;-65
2021/12/23 12:27:58;;;;;;;30.03;8.07;;;0.50;37.10;;;;;;4989136;28;20224;-66
2021/12/23 12:30:35;;;;;;;13.47;3.93;;;0.60;45.20;;;;;;4976423;28;20365;-66
2021/12/23 12:33:10;;;;;;;32.43;8.40;;;0.60;54.60;;;;;;4978776;28;20177;-66
2021/12/23 12:35:37;;;;;;;15.30;4.33;;;0.80;51.20;;;;;;4981521;28;20185;-65
2021/12/23 12:38:22;;;;;;;47.97;12.80;;;0.90;38.50;;;;;;4979459;28;20718;-65
2021/12/23 12:41:09;;;;;;;15.13;4.37;;;0.70;54.20;;;;;;4988629;28;20188;-65
2021/12/23 12:43:49;;;;;;;23.83;6.60;;;0.70;26.80;;;;;;4984767;28;20196;-65
2021/12/23 12:46:48;;;;;;;19.13;5.43;;;0.60;53.80;;;;;;4985178;28;20177;-69
2021/12/23 12:49:24;;;;;;;11.67;3.37;;;0.70;6.30;;;;;;4989631;28;20190;-68
2021/12/23 12:51:51;;;;;;;12.97;3.90;;;0.70;1.30;;;;;;4984835;28;20291;-67
2021/12/23 12:54:30;;;;;;;15.73;4.63;;;1.10;1.00;;;;;;4981991;28;20193;-68
2021/12/23 12:56:59;;;;;;;14.17;4.20;;;0.50;1.00;;;;;;4988489;28;20905;-67
2021/12/23 12:59:28;;;;;;;10.13;3.13;;;0.50;1.00;;;;;;4980992;28;20193;-67
2021/12/23 13:01:54;;;;;;;10.97;3.27;;;0.30;1.00;;;;;;4994717;28;20190;-67
2021/12/23 13:04:23;;;;;;;13.23;3.83;;;0.50;1.50;;;;;;4992319;28;20174;-67
2021/12/23 13:06:51;;;;;;;13.10;3.80;;;0.40;1.00;;;;;;4992550;28;20610;-67
2021/12/23 13:09:23;;;;;;;10.50;3.17;;;0.30;1.00;;;;;;4988439;28;20269;-67
2021/12/23 13:11:49;;;;;;;26.90;7.63;;;0.40;1.00;;;;;;4985675;28;20229;-68
2021/12/23 13:14:56;;;;;;;12.30;3.77;;;0.30;1.00;;;;;;4987980;28;20586;-68
2021/12/23 13:17:43;;;;;;;18.03;5.23;;;0.40;16.20;;;;;;4989492;28;20213;-67
2021/12/23 13:20:09;;;;;;;20.03;5.67;;;0.30;28.40;;;;;;4983612;28;20181;-67
2021/12/23 13:22:35;;;;;;;15.10;4.40;;;0.40;28.80;;;;;;4992443;28;20259;-68
2021/12/23 13:25:03;;;;;;;16.23;4.63;;;0.30;32.00;;;;;;4993257;28;20546;-68
2021/12/23 13:27:29;;;;;;;22.43;6.13;;;0.40;42.80;;;;;;4992553;28;20210;-68
2021/12/23 13:30:05;;;;;;;14.83;4.27;;;0.60;45.80;;;;;;4984288;28;20221;-67
2021/12/23 13:32:31;;;;;;;23.90;6.67;;;0.40;50.20;;;;;;4985670;28;20190;-68
2021/12/23 13:35:16;;;;;;;14.83;4.40;;;0.60;55.80;;;;;;4985110;28;20189;-67
2021/12/23 13:37:45;;;;;;;13.20;3.87;;;0.40;61.10;;;;;;4991717;28;20201;-68
2021/12/23 13:40:13;;;;;;;9.40;2.90;;;0.30;62.60;;;;;;4991390;28;20268;-67
2021/12/23 13:42:40;;;;;;;13.53;4.00;;;0.30;66.30;;;;;;4985193;28;20196;-68
2021/12/23 13:45:06;;;;;;;15.17;4.33;;;0.30;61.90;;;;;;4986236;28;20212;-68
2021/12/23 13:47:34;;;;;;;16.10;4.63;;;0.30;64.20;;;;;;4996208;28;20308;-68
2021/12/23 13:50:01;;;;;;;13.77;4.07;;;0.20;66.00;;;;;;4991914;28;20200;-67